Latest Coastal Weather Observations for Cape Byron

IDN60701

Issued at 6:41 pm EDT Tuesday 20 November 2018 (issued every 10 minutes, with the page automatically refreshed every 10 minutes)

About coastal observations | Map of coastal stations | Coastal observations for NSW | Marine services | Other Formats
Station Details ID: 058216 Name: CAPE BYRON AWS Lat: -28.64 Lon: 153.64 Height: 95.0 m
Data from the previous 72 hours. | See also: Recent months at Cape Byron
Date/Time
EDT
Wind Sea
Height
m
Swell Vis
km
Cloud Weather Temp
°C
Press
hPa
Rain since
9am
mm
Dir  Spd
kts
Gust
kts
Height
m
Period
s
Dir
20/06:30pm NNE 17 23 - - - - - - - 22.7 1010.8 0.0
20/06:00pm NNE 16 23 - - - - - - - 22.8 1010.8 0.0
20/05:30pm NNE 17 22 - - - - - - - 23.1 1010.8 0.0
20/05:00pm NNE 16 25 - - - - - - - 23.4 1010.9 0.0
20/04:50pm NNE 16 26 - - - - - - - 23.2 1011.0 0.0
20/04:30pm NNE 16 22 - - - - - - - 23.2 1011.5 0.0
20/04:00pm NNE 16 22 - - - - - - - 23.6 1011.8 0.0
20/03:30pm NNE 13 19 - - - - - - - 23.9 1011.9 0.0
20/03:00pm NNE 13 18 - - - - - - - 23.8 1012.4 0.0
20/02:30pm NNE 13 19 - - - - - - - 23.8 1012.9 0.0
20/02:00pm NNE 13 20 - - - - - - - 24.5 1013.5 0.0
20/01:30pm NE 16 21 - - - - - - - 24.4 1013.9 0.0
20/01:00pm NE 15 19 - - - - - - - 24.8 1014.6 0.0
20/12:30pm NE 16 20 - - - - - - - 25.5 1015.1 0.0
20/12:00pm NE 14 16 - - - - - - - 25.3 1015.7 0.0
20/11:30am NE 11 14 - - - - - - - 25.7 1016.4 0.0
20/11:00am NE 8 11 - - - - - - - 24.8 1016.9 0.0
20/10:30am N 4 6 - - - - - - - 24.4 1017.2 0.0
20/10:00am N 4 6 - - - - - - - 23.2 1017.2 0.0
20/09:30am NE 3 5 - - - - - - - 22.9 1017.3 0.0
20/09:00am W 5 7 - - - - - - - 20.7 1017.6 0.2
20/08:30am WNW 7 9 - - - - - - - 21.0 1017.8 0.2
20/08:00am W 7 9 - - - - - - - 20.2 1017.9 0.2
20/07:30am W 8 9 - - - - - - - 19.3 1017.3 0.2
20/07:00am W 9 11 - - - - - - - 18.8 1017.2 0.2
20/06:30am WNW 6 7 - - - - - - - 19.0 1016.8 0.2
20/06:00am W 7 9 - - - - - - - 18.3 1016.8 0.2
20/05:30am W 8 9 - - - - - - - 17.9 1016.5 0.2
20/05:00am W 5 7 - - - - - - - 18.6 1016.1 0.2
20/04:30am WNW 2 3 - - - - - - - 19.1 1016.3 0.2
20/04:00am CALM 0 0 - - - - - - - 19.3 1016.4 0.2
20/03:30am CALM 0 0 - - - - - - - 19.2 1016.3 0.2
20/03:00am WNW 3 3 - - - - - - - 19.3 1016.6 0.2
20/02:30am WNW 5 6 - - - - - - - 19.1 1016.8 0.2
20/02:00am SW 3 4 - - - - - - - 19.3 1017.1 0.2
20/01:30am SSW 3 4 - - - - - - - 19.5 1017.5 0.2
20/01:00am ENE 1 6 - - - - - - - 19.8 1017.7 0.2
20/12:30am NE 4 6 - - - - - - - 20.3 1018.1 0.2
20/12:00am ENE 7 11 - - - - - - - 19.9 1018.2 0.2
 
Date/Time
EDT
Wind Sea
Height
m
Swell Vis
km
Cloud Weather Temp
°C
Press
hPa
Rain since
9am
mm
Dir  Spd
kts
Gust
kts
Height
m
Period
s
Dir
19/11:30pm E 5 9 - - - - - - - 20.4 1018.5 0.2
19/11:00pm E 5 8 - - - - - - - 20.3 1018.7 0.2
19/10:30pm ENE 6 9 - - - - - - - 20.2 1018.8 0.2
19/10:00pm ENE 5 9 - - - - - - - 20.2 1018.8 0.2
19/09:30pm ENE 5 9 - - - - - - - 20.2 1018.7 0.2
19/09:00pm E 7 10 - - - - - - - 20.2 1018.4 0.2
19/08:30pm E 9 11 - - - - - - - 20.2 1018.3 0.2
19/08:00pm E 8 11 - - - - - - - 20.5 1018.3 0.2
19/07:30pm E 9 13 - - - - - - - 20.7 1018.3 0.2
19/07:00pm SE 10 14 - - - - - - - 21.4 1018.0 0.2
19/06:30pm SSE 9 13 - - - - - - - 21.3 1017.7 0.2
19/06:00pm SE 10 14 - - - - - - - 22.1 1017.4 0.2
19/05:30pm SE 10 13 - - - - - - - 21.9 1017.4 0.2
19/05:00pm SE 13 17 - - - - - - - 22.2 1017.4 0.2
19/04:30pm SE 14 17 - - - - - - - 22.2 1017.5 0.2
19/04:00pm SE 13 17 - - - - - - - 22.6 1017.8 0.2
19/03:30pm SE 12 17 - - - - - - - 23.0 1018.0 0.2
19/03:00pm SE 12 16 - - - - - - - 22.7 1018.2 0.2
19/02:30pm SE 13 17 - - - - - - - 22.7 1018.3 0.2
19/02:00pm SE 15 19 - - - - - - - 22.9 1018.6 0.2
19/01:30pm SE 16 21 - - - - - - - 22.9 1019.0 0.2
19/01:00pm SSE 13 17 - - - - - - - 23.0 1019.5 0.2
19/12:30pm SSE 11 16 - - - - - - - 22.5 1019.8 0.2
19/12:00pm SE 11 15 - - - - - - - 23.2 1020.2 0.2
19/11:30am SE 11 14 - - - - - - - 23.1 1020.5 0.2
19/11:00am SSE 10 13 - - - - - - - 22.7 1020.8 0.2
19/10:30am SE 10 13 - - - - - - - 22.9 1020.9 0.2
19/10:00am SE 12 14 - - - - - - - 22.9 1020.8 0.2
19/09:30am SE 12 15 - - - - - - - 22.3 1020.7 0.0
19/09:00am SE 12 15 - - - - - - - 21.9 1020.6 1.4
19/08:30am SE 13 17 - - - - - - - 21.5 1020.6 1.4
19/08:00am SE 11 15 - - - - - - - 21.1 1020.4 1.4
19/07:30am SSE 11 17 - - - - - - - 20.9 1020.2 1.4
19/07:00am S 10 15 - - - - - - - 19.7 1020.0 1.4
19/06:30am WSW 9 13 - - - - - - - 17.6 1019.8 1.4
19/06:00am SSE 10 15 - - - - - - - 19.5 1019.6 1.4
19/05:30am SE 13 16 - - - - - - - 19.4 1019.2 1.4
19/05:00am SE 13 19 - - - - - - - 19.1 1018.9 1.4
19/04:30am SSW 12 16 - - - - - - - 17.6 1018.6 1.4
19/04:00am SSE 10 13 - - - - - - - 20.0 1018.9 0.0
19/03:30am E 13 16 - - - - - - - 19.6 1018.8 0.0
19/03:00am E 14 18 - - - - - - - 19.7 1019.1 0.0
19/02:30am ESE 16 21 - - - - - - - 19.8 1019.0 0.0
19/02:00am ESE 18 23 - - - - - - - 19.7 1019.3 0.0
19/01:30am SE 20 26 - - - - - - - 20.0 1019.8 0.0
19/01:00am E 21 26 - - - - - - - 20.0 1020.1 0.0
19/12:30am ESE 21 25 - - - - - - - 20.3 1020.2 0.0
19/12:00am E 21 28 - - - - - - - 20.2 1020.3 0.0
 
Date/Time
EDT
Wind Sea
Height
m
Swell Vis
km
Cloud Weather Temp
°C
Press
hPa
Rain since
9am
mm
Dir  Spd
kts
Gust
kts
Height
m
Period
s
Dir
18/11:30pm E 21 27 - - - - - - - 20.1 1020.1 0.0
18/11:00pm E 23 28 - - - - - - - 20.2 1020.3 0.0
18/10:30pm E 21 27 - - - - - - - 19.9 1020.3 0.0
18/10:00pm ESE 22 27 - - - - - - - 20.7 1020.2 0.0
18/09:30pm E 23 29 - - - - - - - 20.6 1019.8 0.0
18/09:00pm ESE 20 24 - - - - - - - 20.7 1020.0 0.0
18/08:30pm ESE 23 28 - - - - - - - 20.7 1019.3 0.0
18/08:00pm E 20 23 - - - - - - - 20.8 1019.2 0.0
18/07:30pm ESE 21 25 - - - - - - - 20.7 1019.1 0.0
18/07:00pm ESE 23 27 - - - - - - - 21.0 1018.9 0.0
18/06:30pm SE 19 23 - - - - - - - 21.3 1018.6 0.0
18/06:00pm SE 18 22 - - - - - - - 21.1 1018.7 0.0
18/05:30pm SE 20 25 - - - - - - - 21.4 1018.6 0.0
18/05:00pm SE 20 26 - - - - - - - 21.4 1018.9 0.0
18/04:47pm SE 15 25 - - - - - - - 22.1 1018.7 0.0
18/04:30pm SSE 13 16 - - - - - - - 23.0 1018.7 0.0
18/04:00pm SE 17 21 - - - - - - - 22.8 1018.7 0.0
18/03:30pm S 9 13 - - - - - - - 22.5 1018.8 0.0
18/03:00pm SE 6 7 - - - - - - - 23.4 1019.2 0.0
18/02:30pm E 8 11 - - - - - - - 23.2 1019.4 0.0
18/02:00pm ESE 18 23 - - - - - - - 21.0 1019.5 0.0
18/01:30pm SE 23 28 - - - - - - - 21.7 1019.6 0.0
18/01:00pm ESE 17 19 - - - - - - - 23.2 1019.7 0.0
18/12:30pm SE 16 19 - - - - - - - 23.2 1019.8 0.0
18/12:00pm SE 16 19 - - - - - - - 24.0 1020.0 0.0
18/11:30am ESE 17 21 - - - - - - - 22.5 1020.1 0.0
18/11:00am ESE 19 23 - - - - - - - 23.1 1020.1 0.0
18/10:30am SE 21 26 - - - - - - - 22.3 1020.0 0.0
18/10:00am ESE 20 25 - - - - - - - 23.1 1019.7 0.0
18/09:30am ESE 24 28 - - - - - - - 22.2 1019.5 0.0
18/09:00am ESE 22 26 - - - - - - - 22.4 1019.4 55.6
18/08:30am ESE 21 25 - - - - - - - 21.6 1019.2 55.6
18/08:00am ESE 22 26 - - - - - - - 22.0 1018.7 55.6
18/07:30am ESE 24 30 - - - - - - - 21.6 1017.9 55.6
18/07:00am ESE 23 27 - - - - - - - 21.1 1017.8 55.6
18/06:30am ESE 26 30 - - - - - - - 20.4 1017.3 55.6
18/06:00am ESE 29 34 - - - - - - Recent precip. 20.4 1016.5 55.6
18/05:36am ESE 27 32 - - - - - - - 20.3 1016.2 55.6
18/05:30am SE 26 31 - - - - - - - 20.5 1016.4 55.6
18/05:00am ESE 23 28 - - - - - - - 19.8 1016.0 55.4
18/04:44am ESE 19 26 - - - - - - - 19.6 1016.2 55.4
18/04:30am ESE 11 16 - - - - - - - 19.0 1016.3 55.2
18/04:00am SE 12 21 - - - - - - - 18.4 1016.6 53.6
18/03:30am S 11 17 - - - - - - - 17.8 1016.9 47.6
18/03:00am ESE 13 23 - - - - - - - 18.7 1017.0 41.8
18/02:30am SSE 10 13 - - - - - - - 19.1 1016.7 41.8
18/02:00am SSW 7 8 - - - - - - - 18.6 1017.1 41.8
18/01:30am SSW 11 14 - - - - - - - 18.4 1017.5 41.4
18/01:00am WSW 3 5 - - - - - - - 18.5 1017.9 39.6
18/12:30am SW 9 13 - - - - - - - 18.2 1017.6 38.6
18/12:00am WSW 12 15 - - - - - - Recent precip. 18.3 1018.0 34.8
 
Date/Time
EDT
Wind Sea
Height
m
Swell Vis
km
Cloud Weather Temp
°C
Press
hPa
Rain since
9am
mm
Dir  Spd
kts
Gust
kts
Height
m
Period
s
Dir
17/11:30pm SSW 4 6 - - - - - - - 18.0 1017.7 34.4
17/11:00pm E 5 9 - - - - - - - 18.8 1017.8 29.2
17/10:30pm ESE 3 5 - - - - - - - 19.2 1017.2 29.2
17/10:00pm SSE 10 14 - - - - - - - 18.8 1017.5 27.2
17/09:30pm SW 15 21 - - - - - - - 18.7 1017.1 25.8
17/09:00pm W 13 17 - - - - - - - 18.9 1016.6 22.8
17/08:30pm NE 9 11 - - - - - - - 19.5 1015.7 22.8
17/08:00pm E 9 13 - - - - - - - 19.2 1015.3 22.8
17/07:30pm E 10 14 - - - - - - - 19.7 1015.2 22.8
17/07:00pm E 11 16 - - - - - - - 19.4 1015.6 22.0

Other Formats:

Comma delimited format used in spreadsheet applications
http://www.bom.gov.au/fwo/IDN60701/IDN60701.94599.axf

JavaScript Object Notation format (JSON) in row-major order
http://www.bom.gov.au/fwo/IDN60701/IDN60701.94599.json